createdAt,value
2023-01-18T00:00:45.995Z,23.10
2023-01-18T00:06:48.075Z,21.33
2023-01-18T00:12:50.484Z,21.75
2023-01-18T00:18:55.044Z,19.20
2023-01-18T00:24:56.926Z,16.90
2023-01-18T00:30:58.871Z,19.48
2023-01-18T00:37:00.936Z,19.33
2023-01-18T00:43:21.421Z,18.35
2023-01-18T00:49:23.721Z,17.48
2023-01-18T00:55:26.338Z,15.15
2023-01-18T01:01:28.314Z,15.70
2023-01-18T01:07:30.159Z,18.00
2023-01-18T01:13:50.825Z,22.83
2023-01-18T01:20:11.436Z,21.85
2023-01-18T01:26:13.330Z,23.60
2023-01-18T01:32:15.134Z,25.15
2023-01-18T01:38:16.974Z,19.60
2023-01-18T01:44:20.027Z,21.10
2023-01-18T01:50:25.915Z,23.95
2023-01-18T01:56:29.467Z,20.75
2023-01-18T02:02:34.085Z,19.83
2023-01-18T02:08:36.136Z,27.63
2023-01-18T02:14:38.016Z,21.98
2023-01-18T02:20:49.006Z,26.20
2023-01-18T02:26:53.890Z,19.40
2023-01-18T02:33:07.517Z,19.27
2023-01-18T02:39:38.456Z,20.48
2023-01-18T02:46:03.489Z,21.27
2023-01-18T02:52:07.792Z,19.77
2023-01-18T02:58:28.493Z,19.85
2023-01-18T03:04:54.761Z,19.00
2023-01-18T03:11:01.583Z,19.95
2023-01-18T03:17:29.785Z,18.75
2023-01-18T03:23:40.001Z,18.67
2023-01-18T03:30:01.069Z,19.58
2023-01-18T03:36:05.795Z,22.25
2023-01-18T03:48:17.374Z,21.17
2023-01-18T03:54:25.178Z,25.45
2023-01-18T04:00:27.044Z,21.95
2023-01-18T04:06:31.152Z,21.77
2023-01-18T04:12:34.460Z,20.88
2023-01-18T04:18:36.343Z,19.88
2023-01-18T04:24:38.147Z,25.20
2023-01-18T04:30:40.124Z,26.90
2023-01-18T04:36:41.962Z,26.85
2023-01-18T04:42:43.779Z,23.65
2023-01-18T04:48:50.767Z,21.10
2023-01-18T04:54:52.764Z,22.85
2023-01-18T05:00:54.584Z,22.25
2023-01-18T05:06:57.516Z,21.38
2023-01-18T05:12:59.829Z,21.73
2023-01-18T05:19:02.060Z,21.73
2023-01-18T05:25:05.535Z,25.83
2023-01-18T05:31:07.575Z,20.13
2023-01-18T05:37:09.981Z,23.63
2023-01-18T05:43:13.037Z,27.30
2023-01-18T05:49:14.828Z,22.63
2023-01-18T05:55:16.849Z,23.08
2023-01-18T06:01:18.839Z,26.23
2023-01-18T06:07:20.989Z,28.63
2023-01-18T06:13:23.749Z,24.95
2023-01-18T06:19:25.640Z,24.17
2023-01-18T06:25:27.714Z,27.92
2023-01-18T06:31:29.606Z,28.08
2023-01-18T06:37:31.383Z,24.08
2023-01-18T06:43:33.388Z,27.63
2023-01-18T06:49:35.187Z,21.17
2023-01-18T06:55:36.917Z,24.88
2023-01-18T07:01:38.825Z,26.42
2023-01-18T07:07:40.751Z,25.60
2023-01-18T07:13:43.804Z,24.17
2023-01-18T07:19:45.724Z,28.60
2023-01-18T07:25:47.486Z,29.17
2023-01-18T07:31:49.284Z,25.25
2023-01-18T07:37:53.415Z,28.00
2023-01-18T07:43:55.892Z,36.13
2023-01-18T07:49:57.765Z,21.25
2023-01-18T07:56:04.575Z,27.65
2023-01-18T08:02:08.765Z,25.80
2023-01-18T08:08:12.050Z,21.17
2023-01-18T08:14:13.846Z,17.98
2023-01-18T08:20:15.892Z,25.00
2023-01-18T08:26:17.781Z,21.00
2023-01-18T08:32:19.584Z,25.92
2023-01-18T08:38:21.949Z,27.33
2023-01-18T08:44:24.190Z,22.17
2023-01-18T08:50:26.443Z,23.50
2023-01-18T08:56:28.382Z,22.30
2023-01-18T09:02:30.245Z,21.60
2023-01-18T09:08:32.112Z,21.23
2023-01-18T09:14:33.896Z,20.10
2023-01-18T09:20:36.436Z,30.10
2023-01-18T09:26:38.390Z,27.38
2023-01-18T09:32:42.270Z,27.02
2023-01-18T09:38:46.041Z,25.33
2023-01-18T09:44:58.652Z,28.45
2023-01-18T09:51:05.504Z,26.00
2023-01-18T09:57:34.259Z,26.38
2023-01-18T10:03:53.589Z,26.40
2023-01-18T10:09:58.284Z,26.23
2023-01-18T10:22:19.342Z,22.38
2023-01-18T10:28:45.268Z,23.30
2023-01-18T10:34:51.531Z,26.85
2023-01-18T10:41:02.932Z,24.65
2023-01-18T10:47:04.784Z,27.60
2023-01-18T10:53:27.250Z,32.40
2023-01-18T10:59:39.827Z,26.63
2023-01-18T11:05:45.507Z,22.77
2023-01-18T11:12:22.775Z,22.50
2023-01-18T11:18:24.573Z,22.55
2023-01-18T11:24:33.326Z,26.02
2023-01-18T11:30:36.219Z,24.05
2023-01-18T11:36:43.831Z,20.92
2023-01-18T11:42:46.809Z,26.65
2023-01-18T11:48:59.608Z,25.30
2023-01-18T11:55:11.575Z,19.90
2023-01-18T12:01:31.840Z,18.90
2023-01-18T12:07:54.746Z,18.17
2023-01-18T12:14:24.701Z,16.40
2023-01-18T12:20:36.612Z,20.67
2023-01-18T12:26:58.214Z,19.65
2023-01-18T12:33:14.491Z,16.15
2023-01-18T12:39:33.291Z,18.90
2023-01-18T12:45:46.706Z,16.17
2023-01-18T12:51:53.752Z,17.95
2023-01-18T12:57:59.168Z,15.75
2023-01-18T13:04:08.281Z,18.77
2023-01-18T13:10:21.592Z,14.40
2023-01-18T13:16:33.041Z,17.42
2023-01-18T13:23:00.217Z,18.67
2023-01-18T13:29:29.957Z,16.20
2023-01-18T13:35:33.536Z,15.27
2023-01-18T13:41:35.967Z,15.68
2023-01-18T13:47:45.656Z,14.75
2023-01-18T13:53:49.604Z,15.27
2023-01-18T13:59:52.357Z,15.50
2023-01-18T14:05:59.593Z,17.17
2023-01-18T14:12:01.724Z,15.55
2023-01-18T14:18:05.405Z,14.93
2023-01-18T14:24:10.271Z,12.90
2023-01-18T14:30:19.204Z,18.73
2023-01-18T14:36:28.889Z,17.27
2023-01-18T14:42:34.863Z,14.88
2023-01-18T14:48:47.734Z,16.73
2023-01-18T14:54:54.665Z,14.68
2023-01-18T15:00:56.570Z,15.63
2023-01-18T15:07:06.303Z,18.80
2023-01-18T15:13:08.172Z,18.73
2023-01-18T15:19:17.380Z,14.65
2023-01-18T15:25:26.266Z,18.42
2023-01-18T15:31:31.183Z,19.52
2023-01-18T15:37:40.063Z,15.73
2023-01-18T15:43:43.725Z,17.50
2023-01-18T15:49:49.294Z,19.77
2023-01-18T15:55:54.340Z,22.25
2023-01-18T16:02:08.476Z,19.42
2023-01-18T16:08:20.918Z,18.38
2023-01-18T16:14:28.950Z,20.73
2023-01-18T16:20:33.405Z,17.65
2023-01-18T16:26:35.264Z,19.65
2023-01-18T16:32:38.442Z,24.55
2023-01-18T16:38:41.149Z,19.70
2023-01-18T16:44:45.520Z,19.50
2023-01-18T16:50:47.948Z,20.88
2023-01-18T16:56:50.387Z,22.30
2023-01-18T17:02:53.462Z,16.30
2023-01-18T17:08:55.552Z,17.83
2023-01-18T17:14:57.536Z,20.73
2023-01-18T17:20:59.557Z,16.17
2023-01-18T17:27:01.594Z,18.60
2023-01-18T17:33:03.680Z,18.95
2023-01-18T17:39:06.382Z,29.98
2023-01-18T17:45:10.058Z,20.05
2023-01-18T17:51:13.763Z,18.77
2023-01-18T17:57:15.910Z,21.02
2023-01-18T18:03:17.883Z,17.85
2023-01-18T18:09:19.710Z,17.10
2023-01-18T18:15:22.378Z,17.70
2023-01-18T18:21:27.250Z,24.05
2023-01-18T18:27:44.431Z,18.50
2023-01-18T18:33:47.324Z,21.00
2023-01-18T18:39:49.388Z,18.15
2023-01-18T18:45:51.575Z,19.33
2023-01-18T18:51:53.530Z,17.60
2023-01-18T18:57:55.323Z,17.73
2023-01-18T19:03:59.021Z,18.58
2023-01-18T19:10:00.968Z,17.15
2023-01-18T19:16:02.750Z,16.88
2023-01-18T19:22:04.686Z,14.73
2023-01-18T19:28:07.100Z,14.88
2023-01-18T19:34:09.051Z,17.08
2023-01-18T19:40:12.129Z,16.50
2023-01-18T19:46:15.325Z,16.27
2023-01-18T19:52:17.344Z,14.40
2023-01-18T19:58:19.217Z,18.67
2023-01-18T20:04:21.144Z,15.93
2023-01-18T20:10:22.910Z,15.93
2023-01-18T20:16:24.727Z,13.38
2023-01-18T20:22:26.698Z,13.77
2023-01-18T20:28:28.673Z,14.50
2023-01-18T20:34:31.048Z,14.27
2023-01-18T20:40:33.774Z,14.73
2023-01-18T20:46:36.043Z,12.27
2023-01-18T20:52:38.056Z,14.57
2023-01-18T20:58:39.801Z,15.27
2023-01-18T21:04:41.591Z,13.02
2023-01-18T21:10:43.428Z,15.05
2023-01-18T21:16:45.415Z,15.45
2023-01-18T21:22:47.370Z,17.52
2023-01-18T21:28:49.284Z,16.25
2023-01-18T21:34:52.209Z,14.30
2023-01-18T21:40:54.171Z,15.40
2023-01-18T21:46:56.210Z,13.43
2023-01-18T21:53:16.544Z,12.93
2023-01-18T21:59:18.342Z,14.60
2023-01-18T22:05:20.215Z,12.85
2023-01-18T22:11:22.159Z,15.27
2023-01-18T22:17:24.104Z,11.68
2023-01-18T22:23:25.962Z,12.55
2023-01-18T22:29:27.726Z,10.70
2023-01-18T22:35:31.363Z,15.55
2023-01-18T22:41:33.379Z,9.73
2023-01-18T22:47:35.302Z,11.52
2023-01-18T22:53:37.402Z,8.55
2023-01-18T22:59:39.771Z,12.38
2023-01-18T23:05:42.061Z,10.77
2023-01-18T23:11:44.973Z,11.30
2023-01-18T23:17:46.997Z,11.10
2023-01-18T23:23:49.315Z,12.80
2023-01-18T23:29:59.961Z,11.60
2023-01-18T23:36:01.888Z,11.50
2023-01-18T23:42:22.510Z,11.30
2023-01-18T23:48:42.580Z,12.57
2023-01-18T23:54:44.503Z,15.38
